Terminal Aerodrome Forecast
Issued by NWS

Home | Current Version | Previous Version | Text Only | Print | Product List | Glossary On
Versions: 1 2 3 4 5 6 7 8 9 10 11 12 13 14 15 16 17
000
FTUS45 KABQ 030500
TAFTCC
TAF
KTCC 030535Z 0306/0406 22007KT P6SM FEW040 BKN200
      TEMPO 0309/0312 25015G25KT
     FM031600 26015G22KT P6SM SCT080
     FM040000 20009KT P6SM BKN060=

USA.gov is the U.S. government's official web portal to all federal, state and local government web resources and services.